Time;durP1;ratioP1;P1;durP2;ratioP2;P2;SDS_P1;SDS_P2;PMS_P1;PMS_P2;Temp;Humidity;BMP_temperature;BMP_pressure;BME280_temperature;BME280_humidity;BME280_pressure;Samples;Min_cycle;Max_cycle;Signal;HPM_P1;HPM_P2
2021/07/31 00:00:27;;;;;;;1.97;0.60;;;18.00;99.90;;;;;;6215597;23;20264;-74
2021/07/31 00:02:54;;;;;;;0.80;0.57;;;17.90;99.90;;;;;;6215412;23;20203;-73
2021/07/31 00:05:22;;;;;;;5.13;1.70;;;17.90;99.90;;;;;;6215246;23;20183;-74
2021/07/31 00:07:49;;;;;;;1.47;0.60;;;17.80;99.90;;;;;;6215670;23;20196;-74
2021/07/31 00:10:16;;;;;;;5.07;0.90;;;17.80;99.90;;;;;;6215198;23;20214;-74
2021/07/31 00:12:43;;;;;;;1.67;0.70;;;17.80;99.90;;;;;;6214937;23;20187;-74
2021/07/31 00:15:10;;;;;;;5.07;0.80;;;17.90;99.90;;;;;;6215562;23;20503;-74
2021/07/31 00:17:37;;;;;;;1.10;0.73;;;17.80;99.90;;;;;;6215165;23;20196;-74
2021/07/31 00:20:05;;;;;;;2.10;0.70;;;17.80;99.90;;;;;;6215395;23;20176;-74
2021/07/31 00:22:33;;;;;;;4.77;1.33;;;17.80;99.90;;;;;;6215015;23;20181;-73
2021/07/31 00:25:00;;;;;;;2.10;0.73;;;17.80;99.90;;;;;;6215063;23;20516;-75
2021/07/31 00:27:27;;;;;;;3.33;0.77;;;17.80;99.90;;;;;;6214708;23;20176;-73
2021/07/31 00:29:53;;;;;;;4.90;1.10;;;17.80;99.90;;;;;;6215007;23;20201;-73
2021/07/31 00:32:20;;;;;;;3.83;0.73;;;17.80;99.90;;;;;;6215235;23;20181;-74
2021/07/31 00:34:47;;;;;;;4.07;1.00;;;17.90;99.90;;;;;;6215457;23;20176;-74
2021/07/31 00:37:14;;;;;;;2.80;0.80;;;17.90;99.90;;;;;;6215371;23;20199;-74
2021/07/31 00:39:42;;;;;;;1.37;0.60;;;17.90;99.90;;;;;;6214844;23;20187;-74
2021/07/31 00:42:10;;;;;;;3.20;0.70;;;17.90;99.90;;;;;;6214563;23;20176;-74
2021/07/31 00:44:37;;;;;;;4.10;0.77;;;17.90;99.90;;;;;;6215159;23;20203;-74
2021/07/31 00:47:06;;;;;;;2.30;0.80;;;17.90;99.90;;;;;;6214984;23;20632;-73
2021/07/31 00:49:34;;;;;;;3.20;0.80;;;17.90;99.90;;;;;;6214515;23;20686;-73
2021/07/31 00:52:02;;;;;;;2.97;0.80;;;17.80;99.90;;;;;;6215417;23;20176;-74
2021/07/31 00:54:30;;;;;;;2.30;0.70;;;17.80;99.90;;;;;;6214941;23;20176;-74
2021/07/31 00:56:59;;;;;;;1.50;0.73;;;17.70;99.90;;;;;;6215055;23;20176;-74
2021/07/31 00:59:27;;;;;;;3.50;0.77;;;17.80;99.90;;;;;;6215055;23;20196;-74
2021/07/31 01:01:53;;;;;;;3.00;0.90;;;17.80;99.90;;;;;;6215182;23;20180;-73
2021/07/31 01:04:20;;;;;;;3.57;0.67;;;17.80;99.90;;;;;;6214957;23;20176;-74
2021/07/31 01:06:48;;;;;;;1.57;0.73;;;17.80;99.90;;;;;;6215299;23;20177;-74
2021/07/31 01:09:14;;;;;;;3.30;0.73;;;17.80;99.90;;;;;;6214850;23;20250;-73
2021/07/31 01:11:41;;;;;;;1.37;0.70;;;17.70;99.90;;;;;;6214871;23;20208;-73
2021/07/31 01:14:10;;;;;;;2.10;0.70;;;17.70;99.90;;;;;;6215292;23;20177;-73
2021/07/31 01:16:37;;;;;;;1.80;0.70;;;17.60;99.90;;;;;;6215439;23;20203;-73
2021/07/31 01:19:04;;;;;;;1.20;0.70;;;17.60;99.90;;;;;;6214979;23;20196;-74
2021/07/31 01:21:37;;;;;;;2.30;0.90;;;17.60;99.90;;;;;;6215462;23;20187;-74
2021/07/31 01:24:05;;;;;;;5.20;1.00;;;17.70;99.90;;;;;;6216080;23;20176;-74
2021/07/31 01:26:35;;;;;;;6.30;0.80;;;17.50;99.90;;;;;;6216955;23;20176;-74
2021/07/31 01:29:03;;;;;;;1.87;0.90;;;17.50;99.90;;;;;;6216606;23;20208;-74
2021/07/31 01:31:30;;;;;;;1.57;0.80;;;17.50;99.90;;;;;;6216867;23;20246;-73
2021/07/31 01:33:57;;;;;;;2.53;0.90;;;17.50;99.90;;;;;;6216795;23;20495;-74
2021/07/31 01:36:23;;;;;;;3.00;0.90;;;17.50;99.90;;;;;;6216363;23;20177;-74
2021/07/31 01:38:52;;;;;;;3.00;0.77;;;17.50;99.90;;;;;;6215988;23;20196;-74
2021/07/31 01:41:19;;;;;;;1.30;0.70;;;17.50;99.90;;;;;;6216461;23;20631;-74
2021/07/31 01:43:46;;;;;;;1.20;0.70;;;17.40;99.90;;;;;;6216782;23;20187;-74
2021/07/31 01:46:13;;;;;;;2.77;0.70;;;17.50;99.90;;;;;;6216367;23;20181;-73
2021/07/31 01:48:40;;;;;;;2.70;0.90;;;17.50;99.90;;;;;;6216072;23;20275;-74
2021/07/31 01:51:06;;;;;;;2.37;0.80;;;17.60;99.90;;;;;;6216521;23;20215;-73
2021/07/31 01:53:33;;;;;;;3.50;0.63;;;17.50;99.90;;;;;;6216225;23;20192;-74
2021/07/31 01:56:01;;;;;;;1.83;0.80;;;17.50;99.90;;;;;;6216360;23;20184;-73
2021/07/31 01:58:28;;;;;;;2.00;0.57;;;17.40;99.90;;;;;;6216353;23;20201;-73
2021/07/31 02:00:56;;;;;;;1.83;0.80;;;17.30;99.90;;;;;;6216394;23;20180;-73
2021/07/31 02:03:23;;;;;;;3.03;1.00;;;17.20;99.90;;;;;;6216668;23;20213;-74
2021/07/31 02:05:51;;;;;;;1.33;0.63;;;17.10;99.90;;;;;;6216234;23;20653;-74
2021/07/31 02:08:17;;;;;;;3.07;0.90;;;17.10;99.90;;;;;;6215977;23;20196;-74
2021/07/31 02:10:45;;;;;;;3.90;1.13;;;17.20;99.90;;;;;;6216647;23;20203;-74
2021/07/31 02:13:13;;;;;;;2.30;0.70;;;17.20;99.90;;;;;;6216643;23;20176;-74
2021/07/31 02:15:40;;;;;;;4.70;1.00;;;17.20;99.90;;;;;;6216114;23;20185;-73
2021/07/31 02:18:07;;;;;;;3.97;1.20;;;17.10;99.90;;;;;;6216155;23;20200;-73
2021/07/31 02:20:34;;;;;;;4.30;1.00;;;17.20;99.90;;;;;;6216391;23;20177;-73
2021/07/31 02:23:01;;;;;;;2.03;0.83;;;17.20;99.90;;;;;;6215819;23;20182;-74
2021/07/31 02:25:28;;;;;;;2.30;0.73;;;17.20;99.90;;;;;;6215728;23;20263;-73
2021/07/31 02:27:55;;;;;;;4.40;0.80;;;17.20;99.90;;;;;;6215786;23;20200;-73
2021/07/31 02:30:23;;;;;;;2.07;0.90;;;17.10;99.90;;;;;;6216124;23;20211;-73
2021/07/31 02:32:51;;;;;;;2.17;0.80;;;17.10;99.90;;;;;;6215459;23;20651;-73
2021/07/31 02:35:17;;;;;;;2.10;1.00;;;17.20;99.90;;;;;;6215725;23;20187;-73
2021/07/31 02:37:44;;;;;;;1.33;0.77;;;17.20;99.90;;;;;;6216032;23;20196;-73
2021/07/31 02:40:12;;;;;;;8.07;1.90;;;17.30;99.90;;;;;;6216388;23;20183;-73
2021/07/31 02:42:38;;;;;;;2.13;1.00;;;17.30;99.90;;;;;;6215967;23;20176;-74
2021/07/31 02:45:07;;;;;;;2.07;0.77;;;17.20;99.90;;;;;;6215911;23;20176;-74
2021/07/31 02:47:35;;;;;;;1.17;0.70;;;17.10;99.90;;;;;;6215840;23;20176;-73
2021/07/31 02:50:01;;;;;;;1.93;1.10;;;17.00;99.90;;;;;;6216194;23;20183;-73
2021/07/31 02:52:28;;;;;;;4.77;0.80;;;17.00;99.90;;;;;;6215506;23;20183;-73
2021/07/31 02:54:55;;;;;;;1.87;0.80;;;17.00;99.90;;;;;;6216379;23;20612;-74
2021/07/31 02:57:22;;;;;;;3.07;0.93;;;17.00;99.90;;;;;;6215852;23;20627;-73
2021/07/31 02:59:48;;;;;;;3.03;1.00;;;17.10;99.90;;;;;;6216348;23;20182;-73
2021/07/31 03:02:15;;;;;;;4.00;0.93;;;17.00;99.90;;;;;;6215861;23;20183;-73
2021/07/31 03:04:43;;;;;;;4.40;0.70;;;17.00;99.90;;;;;;6215842;23;20176;-73
2021/07/31 03:07:10;;;;;;;1.60;0.80;;;17.00;99.90;;;;;;6216303;23;20187;-74
2021/07/31 03:09:37;;;;;;;1.67;0.77;;;17.10;99.90;;;;;;6215745;23;20196;-73
2021/07/31 03:12:04;;;;;;;1.97;1.00;;;17.10;99.90;;;;;;6215316;23;20208;-73
2021/07/31 03:14:31;;;;;;;1.73;0.90;;;17.10;99.90;;;;;;6215653;23;20652;-73
2021/07/31 03:16:58;;;;;;;2.23;1.10;;;17.00;99.90;;;;;;6215589;23;20176;-73
2021/07/31 03:19:25;;;;;;;1.13;0.80;;;17.00;99.90;;;;;;6215567;23;20226;-73
2021/07/31 03:21:53;;;;;;;2.73;1.00;;;17.00;99.90;;;;;;6215592;23;20184;-73
2021/07/31 03:24:19;;;;;;;3.40;1.10;;;16.90;99.90;;;;;;6215599;23;20477;-75
2021/07/31 03:26:46;;;;;;;2.17;1.17;;;16.90;99.90;;;;;;6215799;23;20199;-74
2021/07/31 03:29:13;;;;;;;3.23;0.73;;;16.90;99.90;;;;;;6215334;23;20493;-74
2021/07/31 03:31:40;;;;;;;1.10;0.90;;;16.90;99.90;;;;;;6215842;23;20214;-73
2021/07/31 03:34:07;;;;;;;3.10;0.90;;;16.80;99.90;;;;;;6216033;23;20183;-75
2021/07/31 03:36:33;;;;;;;1.97;0.80;;;16.70;99.90;;;;;;6215933;23;20176;-74
2021/07/31 03:39:02;;;;;;;2.30;0.80;;;16.70;99.90;;;;;;6214906;23;20513;-73
2021/07/31 03:41:28;;;;;;;3.57;1.00;;;16.70;99.90;;;;;;6215542;23;20545;-74
2021/07/31 03:43:55;;;;;;;2.17;0.80;;;16.70;99.90;;;;;;6215570;23;20177;-75
2021/07/31 03:46:22;;;;;;;3.73;0.90;;;16.60;99.90;;;;;;6215298;23;20543;-74
2021/07/31 03:48:49;;;;;;;2.27;0.80;;;16.60;99.90;;;;;;6215249;23;20766;-73
2021/07/31 03:51:16;;;;;;;2.07;0.83;;;16.70;99.90;;;;;;6215465;23;20520;-75
2021/07/31 03:53:43;;;;;;;2.60;1.00;;;16.60;99.90;;;;;;6215402;23;20183;-74
2021/07/31 03:56:11;;;;;;;2.80;1.30;;;16.50;99.90;;;;;;6215387;23;20184;-73
2021/07/31 03:58:38;;;;;;;1.50;1.00;;;16.40;99.90;;;;;;6215778;23;20196;-73
2021/07/31 04:01:04;;;;;;;1.50;0.80;;;16.40;99.90;;;;;;6215671;23;20181;-75
2021/07/31 04:03:31;;;;;;;2.07;0.90;;;16.40;99.90;;;;;;6215621;23;20184;-74
2021/07/31 04:05:59;;;;;;;4.87;0.90;;;16.50;99.90;;;;;;6215769;23;20198;-74
2021/07/31 04:08:26;;;;;;;4.90;1.50;;;16.50;99.90;;;;;;6214977;23;20200;-75
2021/07/31 04:10:53;;;;;;;3.97;1.40;;;16.50;99.90;;;;;;6214986;23;20200;-73
2021/07/31 04:13:21;;;;;;;3.43;0.90;;;16.50;99.90;;;;;;6215276;23;20177;-74
2021/07/31 04:15:48;;;;;;;2.50;1.00;;;16.60;99.90;;;;;;6215335;23;20176;-74
2021/07/31 04:18:15;;;;;;;2.27;0.93;;;16.70;99.90;;;;;;6215369;23;20196;-74
2021/07/31 04:20:41;;;;;;;2.97;1.17;;;16.70;99.90;;;;;;6215274;23;20507;-74
2021/07/31 04:23:08;;;;;;;3.40;1.07;;;16.80;99.90;;;;;;6214469;23;20628;-75
2021/07/31 04:25:38;;;;;;;3.67;1.10;;;16.80;99.90;;;;;;6215651;23;20176;-73
2021/07/31 04:28:05;;;;;;;2.60;1.00;;;16.90;99.90;;;;;;6214983;23;20197;-74
2021/07/31 04:30:35;;;;;;;3.40;0.93;;;16.90;99.90;;;;;;6215230;23;20177;-74
2021/07/31 04:33:02;;;;;;;3.33;1.03;;;16.90;99.90;;;;;;6215640;23;20176;-74
2021/07/31 04:35:28;;;;;;;3.37;0.90;;;16.90;99.90;;;;;;6216002;23;20183;-73
2021/07/31 04:37:55;;;;;;;1.83;0.90;;;16.90;99.90;;;;;;6214690;23;20624;-73
2021/07/31 04:40:22;;;;;;;4.17;1.03;;;16.90;99.90;;;;;;6215028;23;20176;-73
2021/07/31 04:42:49;;;;;;;3.03;1.10;;;17.00;99.90;;;;;;6215302;23;20180;-74
2021/07/31 04:45:15;;;;;;;4.27;1.00;;;17.10;99.90;;;;;;6215289;23;20259;-74
2021/07/31 04:47:44;;;;;;;3.77;1.00;;;17.10;99.90;;;;;;6214287;23;20682;-74
2021/07/31 04:50:13;;;;;;;4.97;0.90;;;17.10;99.90;;;;;;6214514;23;20651;-74
2021/07/31 04:52:40;;;;;;;1.93;1.10;;;17.10;99.90;;;;;;6214970;23;20230;-73
2021/07/31 04:55:07;;;;;;;2.50;1.10;;;17.10;99.90;;;;;;6214270;23;20184;-74
2021/07/31 04:57:34;;;;;;;3.93;1.20;;;17.10;99.90;;;;;;6214588;23;20180;-74
2021/07/31 05:00:01;;;;;;;1.93;0.70;;;17.40;99.90;;;;;;6216864;23;20483;-74
2021/07/31 05:02:32;;;;;;;3.67;0.93;;;17.90;99.90;;;;;;6216675;23;20507;-75
2021/07/31 05:05:02;;;;;;;4.17;1.10;;;18.20;99.90;;;;;;6217336;23;20234;-75
2021/07/31 05:07:30;;;;;;;2.27;0.87;;;18.70;99.90;;;;;;6217210;23;20180;-76
2021/07/31 05:09:56;;;;;;;2.53;0.90;;;19.00;99.90;;;;;;6217153;23;20177;-75
2021/07/31 05:12:23;;;;;;;1.33;0.90;;;19.00;99.90;;;;;;6216867;23;20210;-74
2021/07/31 05:14:52;;;;;;;3.53;1.10;;;18.90;99.90;;;;;;6217235;23;20177;-74
2021/07/31 05:17:20;;;;;;;2.00;1.00;;;18.50;99.90;;;;;;6217073;23;20260;-74
2021/07/31 05:19:47;;;;;;;3.93;1.00;;;18.30;99.90;;;;;;6216731;23;20235;-74
2021/07/31 05:22:16;;;;;;;3.33;1.00;;;18.30;99.90;;;;;;6216614;23;20215;-74
2021/07/31 05:24:42;;;;;;;3.70;1.20;;;18.60;99.90;;;;;;6217120;23;20180;-75
2021/07/31 05:27:09;;;;;;;4.07;1.60;;;18.60;99.90;;;;;;6216847;23;20183;-74
2021/07/31 05:29:36;;;;;;;2.07;1.17;;;19.10;99.90;;;;;;6216823;23;20200;-74
2021/07/31 05:32:03;;;;;;;1.70;1.05;;;19.70;99.90;;;;;;6216835;23;20584;-74
2021/07/31 05:34:30;;;;;;;2.25;1.10;;;20.50;99.90;;;;;;6217074;23;20182;-76
2021/07/31 05:36:57;;;;;;;3.08;0.90;;;20.90;99.90;;;;;;6217079;23;20177;-75
2021/07/31 05:39:25;;;;;;;2.28;1.02;;;21.50;99.90;;;;;;6216136;23;20698;-76
2021/07/31 05:41:53;;;;;;;2.53;0.98;;;22.20;99.90;;;;;;6216486;23;20690;-77
2021/07/31 05:44:21;;;;;;;2.75;1.65;;;22.60;99.90;;;;;;6216275;23;20654;-77
2021/07/31 05:46:49;;;;;;;4.95;1.55;;;22.80;99.90;;;;;;6216235;23;20186;-75
2021/07/31 05:49:16;;;;;;;3.03;0.85;;;22.80;99.90;;;;;;6215667;23;20196;-74
2021/07/31 05:51:42;;;;;;;4.82;1.15;;;22.40;99.90;;;;;;6216689;23;20204;-76
2021/07/31 05:54:09;;;;;;;5.13;1.02;;;22.40;99.90;;;;;;6215827;23;20628;-74
2021/07/31 05:56:37;;;;;;;1.40;0.55;;;22.50;99.90;;;;;;6216390;23;20192;-76
2021/07/31 05:59:04;;;;;;;1.92;0.80;;;22.90;99.90;;;;;;6216061;23;20207;-77
2021/07/31 06:01:35;;;;;;;2.72;0.93;;;23.20;99.90;;;;;;6216051;23;20505;-74
2021/07/31 06:04:02;;;;;;;1.90;1.00;;;22.90;99.90;;;;;;6216673;23;20258;-73
2021/07/31 06:06:28;;;;;;;1.98;0.70;;;23.20;99.90;;;;;;6216657;23;20176;-76
2021/07/31 06:08:55;;;;;;;3.97;1.25;;;23.10;99.90;;;;;;6215725;23;20196;-75
2021/07/31 06:11:22;;;;;;;2.53;0.95;;;23.00;99.90;;;;;;6217053;23;20227;-76
2021/07/31 06:13:50;;;;;;;2.83;1.10;;;22.80;99.90;;;;;;6216118;23;20187;-76
2021/07/31 06:16:17;;;;;;;1.45;0.85;;;22.50;99.90;;;;;;6216711;23;20176;-76
2021/07/31 06:18:44;;;;;;;3.47;1.10;;;22.00;99.90;;;;;;6216155;23;20203;-75
2021/07/31 06:21:18;;;;;;;2.25;0.77;;;21.50;99.90;;;;;;6216713;23;20176;-75
2021/07/31 06:23:45;;;;;;;4.88;1.13;;;21.00;99.90;;;;;;6216062;23;20177;-75
2021/07/31 06:26:12;;;;;;;2.90;1.15;;;20.70;99.90;;;;;;6216077;23;20180;-76
2021/07/31 06:28:38;;;;;;;1.85;1.13;;;20.60;99.90;;;;;;6215754;23;20207;-76
2021/07/31 06:31:07;;;;;;;1.98;0.80;;;20.30;99.90;;;;;;6215847;23;20176;-76
2021/07/31 06:33:34;;;;;;;1.77;1.00;;;20.20;99.90;;;;;;6216464;23;20888;-76
2021/07/31 06:36:01;;;;;;;2.58;1.23;;;20.50;99.90;;;;;;6215896;23;20182;-76
2021/07/31 06:38:28;;;;;;;2.97;1.13;;;20.80;99.90;;;;;;6215027;23;20196;-75
2021/07/31 06:40:55;;;;;;;2.92;1.10;;;21.60;99.90;;;;;;6214920;23;20186;-76
2021/07/31 06:43:21;;;;;;;1.23;0.82;;;22.10;99.90;;;;;;6215113;23;20180;-76
2021/07/31 06:45:48;;;;;;;2.67;0.80;;;22.40;99.90;;;;;;6216167;23;20176;-76
2021/07/31 06:48:16;;;;;;;2.25;0.95;;;22.50;99.90;;;;;;6216132;23;20203;-76
2021/07/31 06:50:43;;;;;;;1.50;0.65;;;22.50;99.90;;;;;;6216391;23;20183;-76
2021/07/31 06:53:10;;;;;;;5.40;1.20;;;22.10;99.90;;;;;;6215890;23;20217;-76
2021/07/31 06:55:36;;;;;;;2.05;1.05;;;21.80;99.90;;;;;;6215580;23;20195;-76
2021/07/31 06:58:03;;;;;;;1.40;1.00;;;21.30;99.90;;;;;;6215204;23;20201;-77
2021/07/31 07:00:30;;;;;;;2.33;1.08;;;21.10;99.90;;;;;;6215742;23;20180;-76
2021/07/31 07:02:57;;;;;;;3.13;1.10;;;21.00;99.90;;;;;;6215568;23;20212;-76
2021/07/31 07:05:25;;;;;;;2.03;0.80;;;21.00;99.90;;;;;;6215341;23;20255;-77
2021/07/31 07:07:53;;;;;;;3.05;1.00;;;21.00;99.90;;;;;;6215359;23;20247;-76
2021/07/31 07:10:20;;;;;;;4.00;1.10;;;21.10;99.90;;;;;;6215880;23;20256;-76
2021/07/31 07:12:46;;;;;;;2.47;0.80;;;21.40;99.90;;;;;;6215484;23;20694;-76
2021/07/31 07:15:13;;;;;;;2.80;1.00;;;21.60;99.90;;;;;;6215811;23;20507;-76
2021/07/31 07:17:40;;;;;;;2.22;0.80;;;22.20;99.90;;;;;;6215805;23;20592;-76
2021/07/31 07:20:08;;;;;;;2.92;1.10;;;22.40;99.90;;;;;;6216090;23;20240;-76
2021/07/31 07:22:36;;;;;;;2.70;1.00;;;22.00;99.90;;;;;;6215445;23;20184;-76
2021/07/31 07:25:03;;;;;;;5.15;1.00;;;22.00;99.90;;;;;;6215573;23;20387;-76
2021/07/31 07:27:29;;;;;;;1.17;0.70;;;22.00;99.90;;;;;;6215790;23;20183;-76
2021/07/31 07:29:56;;;;;;;5.53;0.90;;;22.30;99.90;;;;;;6215543;23;20176;-76
2021/07/31 07:32:23;;;;;;;1.20;0.70;;;22.90;99.90;;;;;;6215299;23;20218;-76
2021/07/31 07:34:50;;;;;;;1.67;0.80;;;22.70;99.90;;;;;;6215833;23;20183;-76
2021/07/31 07:37:16;;;;;;;2.05;0.75;;;22.40;99.90;;;;;;6215415;23;20184;-75
2021/07/31 07:39:44;;;;;;;2.92;0.85;;;23.10;99.90;;;;;;6215446;23;20180;-76
2021/07/31 07:42:11;;;;;;;1.58;0.93;;;23.70;99.90;;;;;;6215691;23;20176;-76
2021/07/31 07:44:38;;;;;;;2.13;1.00;;;23.80;99.90;;;;;;6215678;23;20183;-76
2021/07/31 07:47:05;;;;;;;1.75;0.75;;;23.60;99.90;;;;;;6215636;23;20176;-76
2021/07/31 07:49:32;;;;;;;1.60;0.75;;;23.40;99.90;;;;;;6215698;23;20196;-76
2021/07/31 07:51:58;;;;;;;3.28;0.88;;;24.00;99.90;;;;;;6215430;23;20204;-74
2021/07/31 07:54:25;;;;;;;1.23;0.77;;;24.90;99.90;;;;;;6215358;23;20177;-76
2021/07/31 07:56:53;;;;;;;2.28;0.80;;;25.50;99.90;;;;;;6214621;23;20185;-76
2021/07/31 07:59:20;;;;;;;4.82;1.48;;;25.80;99.90;;;;;;6215750;23;20627;-75
2021/07/31 08:01:47;;;;;;;4.13;1.00;;;25.50;99.90;;;;;;6215521;23;20176;-76
2021/07/31 08:04:14;;;;;;;2.58;0.95;;;24.40;99.90;;;;;;6214869;23;20190;-76
2021/07/31 08:06:41;;;;;;;1.15;0.80;;;24.30;99.90;;;;;;6215086;23;20624;-76
2021/07/31 08:09:08;;;;;;;1.20;0.68;;;24.50;99.90;;;;;;6215108;23;20200;-76
2021/07/31 08:11:35;;;;;;;1.40;0.90;;;24.30;99.90;;;;;;6215666;23;20177;-76
2021/07/31 08:14:03;;;;;;;3.83;0.80;;;24.00;99.90;;;;;;6215141;23;20214;-76
2021/07/31 08:16:30;;;;;;;2.60;0.70;;;23.50;99.90;;;;;;6215500;23;20177;-76
2021/07/31 08:18:57;;;;;;;1.27;0.70;;;23.40;99.90;;;;;;6215353;23;20618;-77
2021/07/31 08:21:23;;;;;;;0.82;0.70;;;23.40;99.90;;;;;;6215125;23;20500;-76
2021/07/31 08:23:50;;;;;;;2.83;0.82;;;24.00;99.90;;;;;;6214402;23;20199;-77
2021/07/31 08:26:17;;;;;;;2.47;0.90;;;24.00;99.90;;;;;;6215933;23;20182;-75
2021/07/31 08:28:44;;;;;;;2.15;0.73;;;23.70;99.90;;;;;;6214959;23;20675;-75
2021/07/31 08:31:14;;;;;;;1.17;0.82;;;22.90;99.90;;;;;;6215086;23;20619;-76
2021/07/31 08:33:41;;;;;;;3.42;0.80;;;22.50;99.90;;;;;;6214343;23;20204;-76
2021/07/31 08:36:09;;;;;;;4.18;1.00;;;22.50;99.90;;;;;;6215415;23;20177;-76
2021/07/31 08:38:36;;;;;;;1.23;0.75;;;22.40;99.90;;;;;;6215080;23;20196;-76
2021/07/31 08:41:04;;;;;;;1.67;0.80;;;22.30;99.90;;;;;;6215390;23;20177;-77
2021/07/31 08:43:31;;;;;;;2.35;0.90;;;22.10;99.90;;;;;;6215071;23;20191;-77
2021/07/31 08:46:00;;;;;;;1.23;0.70;;;22.10;99.90;;;;;;6214753;23;20635;-76
2021/07/31 08:48:29;;;;;;;1.88;0.80;;;22.00;99.90;;;;;;6215031;23;20203;-77
2021/07/31 08:50:58;;;;;;;2.90;1.02;;;21.90;99.90;;;;;;6214790;23;20647;-77
2021/07/31 08:53:25;;;;;;;2.75;0.90;;;21.80;99.90;;;;;;6214241;23;20291;-76
2021/07/31 08:55:53;;;;;;;1.50;0.93;;;21.70;99.90;;;;;;6231726;22;20294;-77
2021/07/31 08:58:23;;;;;;;4.40;0.95;;;21.50;99.90;;;;;;6245384;23;20203;-77
2021/07/31 09:00:49;;;;;;;2.30;1.00;;;21.40;99.90;;;;;;6245628;23;20176;-76
2021/07/31 09:03:17;;;;;;;6.82;2.28;;;21.20;99.90;;;;;;6245588;23;20182;-76
2021/07/31 09:05:45;;;;;;;1.40;0.90;;;21.10;99.90;;;;;;6244917;23;20176;-76
2021/07/31 09:08:12;;;;;;;1.77;1.08;;;20.80;99.90;;;;;;6244971;23;20519;-77
2021/07/31 09:10:40;;;;;;;2.60;1.00;;;20.60;99.90;;;;;;6245244;23;20175;-76
2021/07/31 09:13:09;;;;;;;1.77;1.00;;;20.30;99.90;;;;;;6245050;23;20662;-76
2021/07/31 09:15:38;;;;;;;1.30;0.90;;;20.40;99.90;;;;;;6245754;23;20186;-76
2021/07/31 09:18:22;;;;;;;1.30;0.93;;;20.10;99.90;;;;;;6245988;23;20229;-76
2021/07/31 09:21:01;;;;;;;3.03;1.02;;;19.80;99.90;;;;;;6245215;23;20175;-76
2021/07/31 09:23:48;;;;;;;1.95;0.95;;;19.70;99.90;;;;;;6244969;23;20175;-76
2021/07/31 09:26:18;;;;;;;1.60;0.90;;;19.80;99.90;;;;;;6245314;23;20179;-76
2021/07/31 09:28:46;;;;;;;3.08;1.10;;;20.00;99.90;;;;;;6245457;23;20195;-76
2021/07/31 09:31:16;;;;;;;2.72;1.08;;;20.20;99.90;;;;;;6245852;23;20179;-76
2021/07/31 09:33:45;;;;;;;0.80;0.77;;;20.30;99.90;;;;;;6245361;23;20572;-76
2021/07/31 09:36:13;;;;;;;5.15;1.00;;;20.30;99.90;;;;;;6245617;23;20182;-75
2021/07/31 09:38:43;;;;;;;0.85;0.82;;;20.70;99.90;;;;;;6244944;23;20196;-76
2021/07/31 09:41:29;;;;;;;1.52;0.70;;;21.20;99.90;;;;;;6245582;23;20180;-76
2021/07/31 09:44:11;;;;;;;1.13;0.80;;;21.60;99.90;;;;;;6245899;23;20183;-76
2021/07/31 09:46:40;;;;;;;3.63;0.90;;;21.40;99.90;;;;;;6247372;23;20179;-78
2021/07/31 09:49:09;;;;;;;2.47;1.00;;;21.50;99.90;;;;;;6247317;23;20202;-76
2021/07/31 09:51:39;;;;;;;2.30;0.85;;;21.50;99.90;;;;;;6246822;23;20190;-76
2021/07/31 09:54:09;;;;;;;3.90;1.05;;;21.30;99.90;;;;;;6246754;23;20230;-76
2021/07/31 09:56:40;;;;;;;3.05;0.88;;;21.30;99.90;;;;;;6246653;23;20661;-76
2021/07/31 09:59:07;;;;;;;1.23;0.80;;;21.10;99.90;;;;;;6247036;23;20668;-77
2021/07/31 10:01:37;;;;;;;2.53;0.85;;;21.20;99.90;;;;;;6247288;23;20180;-75
2021/07/31 10:04:05;;;;;;;1.75;1.08;;;21.20;99.90;;;;;;6247128;23;20179;-76
2021/07/31 10:06:32;;;;;;;3.47;1.23;;;21.10;99.90;;;;;;6247206;23;20182;-78
2021/07/31 10:09:03;;;;;;;2.17;1.30;;;20.90;99.90;;;;;;6246633;23;20196;-76
2021/07/31 10:11:30;;;;;;;2.40;1.10;;;20.70;99.90;;;;;;6247019;23;20176;-76
2021/07/31 10:13:58;;;;;;;4.03;0.95;;;20.60;99.90;;;;;;6247092;23;20204;-76
2021/07/31 10:16:25;;;;;;;1.38;0.80;;;20.60;99.90;;;;;;6246369;23;20182;-75
2021/07/31 10:19:02;;;;;;;4.43;0.90;;;21.00;99.90;;;;;;6246665;23;20196;-76
2021/07/31 10:21:33;;;;;;;2.10;1.27;;;21.40;99.90;;;;;;6247038;23;20175;-76
2021/07/31 10:24:03;;;;;;;2.53;1.00;;;21.80;99.90;;;;;;6246581;23;20183;-77
2021/07/31 10:26:31;;;;;;;2.95;1.10;;;22.00;99.90;;;;;;6246587;23;20180;-75
2021/07/31 10:29:31;;;;;;;2.03;0.90;;;22.50;99.90;;;;;;6246279;23;20196;-76
2021/07/31 10:32:40;;;;;;;3.15;1.02;;;22.90;99.90;;;;;;6246659;23;20238;-75
2021/07/31 10:35:08;;;;;;;1.42;0.90;;;23.10;99.90;;;;;;6246245;23;20676;-77
2021/07/31 10:37:46;;;;;;;2.50;1.00;;;23.20;99.90;;;;;;6245992;23;20262;-76
2021/07/31 10:40:43;;;;;;;6.57;1.00;;;23.00;99.90;;;;;;6246739;23;20198;-77
2021/07/31 10:43:11;;;;;;;1.42;0.70;;;23.20;99.90;;;;;;6246622;23;20717;-77
2021/07/31 10:45:38;;;;;;;2.78;0.93;;;23.30;99.90;;;;;;6246222;23;20179;-76
2021/07/31 10:48:06;;;;;;;2.67;1.00;;;23.30;99.90;;;;;;6246836;23;20199;-77
2021/07/31 10:50:38;;;;;;;1.05;0.90;;;23.10;99.90;;;;;;6246999;23;20179;-77
2021/07/31 10:53:06;;;;;;;3.85;1.20;;;22.90;99.90;;;;;;6246155;23;20360;-77
2021/07/31 10:56:01;;;;;;;1.02;0.82;;;23.20;99.90;;;;;;6245774;23;20211;-78
2021/07/31 10:58:30;;;;;;;1.27;0.95;;;23.40;99.90;;;;;;6245854;23;20199;-77
2021/07/31 11:01:22;;;;;;;1.58;0.90;;;23.50;99.90;;;;;;6246935;23;20176;-77
2021/07/31 11:03:50;;;;;;;1.30;0.90;;;23.50;99.90;;;;;;6246708;23;20183;-78
2021/07/31 11:06:17;;;;;;;2.13;1.10;;;23.30;99.90;;;;;;6246246;23;20182;-77
2021/07/31 11:09:16;;;;;;;1.52;0.90;;;22.80;99.90;;;;;;6246173;23;20258;-76
2021/07/31 11:11:44;;;;;;;1.90;1.20;;;22.50;99.90;;;;;;6246159;23;20180;-77
2021/07/31 11:14:11;;;;;;;1.75;0.73;;;22.50;99.90;;;;;;6246807;23;20204;-76
2021/07/31 11:16:38;;;;;;;1.80;1.10;;;22.60;99.90;;;;;;6246004;23;20182;-77
2021/07/31 11:19:05;;;;;;;3.20;0.93;;;22.60;99.90;;;;;;6246148;23;20195;-76
2021/07/31 11:21:34;;;;;;;2.08;0.93;;;22.70;99.90;;;;;;6245896;23;20175;-76
2021/07/31 11:24:03;;;;;;;2.75;0.85;;;22.80;99.90;;;;;;6245480;23;20516;-76
2021/07/31 11:26:50;;;;;;;2.00;1.05;;;22.90;99.90;;;;;;6246416;23;20182;-77
2021/07/31 11:29:19;;;;;;;1.58;0.95;;;23.20;99.90;;;;;;6246447;23;20199;-76
2021/07/31 11:31:58;;;;;;;1.20;0.90;;;23.10;99.90;;;;;;6245812;23;20653;-76
2021/07/31 11:34:25;;;;;;;1.52;0.90;;;23.30;99.90;;;;;;6246509;23;20214;-77
2021/07/31 11:36:56;;;;;;;2.97;0.90;;;23.10;99.90;;;;;;6246299;23;20179;-77
2021/07/31 11:39:23;;;;;;;1.90;1.00;;;23.10;99.90;;;;;;6245468;23;20202;-77
2021/07/31 11:41:51;;;;;;;2.95;0.90;;;23.30;99.90;;;;;;6246021;23;20175;-76
2021/07/31 11:44:28;;;;;;;0.93;0.80;;;23.20;99.90;;;;;;6246084;23;20180;-78
2021/07/31 11:46:56;;;;;;;1.35;0.85;;;23.40;99.90;;;;;;6246178;23;20261;-77
2021/07/31 11:49:27;;;;;;;4.50;1.13;;;23.30;99.90;;;;;;6245560;23;20290;-77
2021/07/31 11:51:56;;;;;;;1.67;0.90;;;23.20;99.90;;;;;;6245270;23;20179;-77
2021/07/31 11:54:23;;;;;;;1.15;0.65;;;23.20;99.90;;;;;;6245590;23;20237;-77
2021/07/31 11:56:52;;;;;;;3.13;0.90;;;23.20;99.90;;;;;;6245541;23;20183;-77
2021/07/31 11:59:27;;;;;;;3.20;0.98;;;23.10;99.90;;;;;;6246484;23;20195;-76
2021/07/31 12:01:56;;;;;;;3.00;1.02;;;23.00;99.90;;;;;;6246058;23;20179;-77
2021/07/31 12:04:42;;;;;;;1.00;0.68;;;23.10;99.90;;;;;;6246133;23;20179;-76
2021/07/31 12:07:12;;;;;;;1.40;0.82;;;23.30;99.90;;;;;;6245819;23;20229;-76
2021/07/31 12:09:40;;;;;;;3.67;1.15;;;23.30;99.90;;;;;;6245290;23;20521;-76
2021/07/31 12:12:23;;;;;;;1.73;1.02;;;23.30;99.90;;;;;;6245731;23;20176;-76
2021/07/31 12:15:12;;;;;;;1.73;0.95;;;23.30;99.90;;;;;;6245470;23;20210;-76
2021/07/31 12:17:39;;;;;;;2.25;1.10;;;23.60;99.90;;;;;;6245970;23;20196;-77
2021/07/31 12:20:08;;;;;;;1.83;1.10;;;23.70;99.90;;;;;;6246261;23;20245;-76
2021/07/31 12:22:36;;;;;;;2.50;0.90;;;23.80;99.90;;;;;;6245172;23;20184;-76
2021/07/31 12:25:12;;;;;;;1.23;0.82;;;23.60;99.90;;;;;;6245123;23;20646;-76
2021/07/31 12:27:58;;;;;;;2.10;0.90;;;23.30;99.90;;;;;;6245389;23;20195;-76
2021/07/31 12:30:27;;;;;;;2.00;1.10;;;23.20;99.90;;;;;;6245660;23;20179;-76
2021/07/31 12:32:54;;;;;;;1.50;0.85;;;23.10;99.90;;;;;;6245827;23;20550;-76
2021/07/31 12:35:38;;;;;;;4.30;1.10;;;23.00;99.90;;;;;;6245952;23;20207;-76
2021/07/31 12:38:07;;;;;;;2.03;0.93;;;23.00;99.90;;;;;;6245501;23;20282;-77
2021/07/31 12:40:35;;;;;;;1.33;1.05;;;23.20;99.90;;;;;;6245316;23;20501;-76
2021/07/31 12:43:07;;;;;;;2.22;1.00;;;23.30;99.90;;;;;;6245694;23;20186;-77
2021/07/31 12:45:34;;;;;;;1.88;1.00;;;23.40;99.90;;;;;;6245628;23;20229;-76
2021/07/31 12:48:01;;;;;;;2.95;0.90;;;23.40;99.90;;;;;;6245572;23;20200;-77
2021/07/31 12:50:28;;;;;;;1.25;0.88;;;23.40;99.90;;;;;;6245865;23;20186;-76
2021/07/31 12:52:55;;;;;;;2.40;1.20;;;23.50;99.90;;;;;;6245315;23;20180;-77
2021/07/31 12:55:24;;;;;;;1.48;0.80;;;23.50;99.90;;;;;;6245151;23;20234;-75